Crew | Aerofun Virtual



 METAR AND TAF INFORMATION
METAR FOR EKBI
ADDS - METARS form results

(1538 UTC 24 May 2019)
Data provider http://aviationweather.gov/metar/data/
 
METAR text: EKBI 241520Z AUTO 28017G29KT 9999 BKN027/// 12/06 Q1010
Conditions at: EKBI (BILLUND AIRPORT , DK) observed 1520 UTC 24 May 2019
Temperature: 12.0°C (54°F)
Dewpoint: 6.0°C (43°F) [RH = 67%]
Pressure (altimeter): 29.82 inches Hg (1010.0 mb)
Winds: from the W (280 degrees) at 20 MPH (17 knots; 8.7 m/s)
gusting to 33 MPH (29 knots; 14.9 m/s)
Visibility: 6 or more miles (10+ km)
Ceiling: 2700 feet AGL
Clouds: broken clouds at 2700 feet AGL
Weather: no significant weather observed at this time

METAR text: EKBI 241450Z AUTO 28015KT 9999 FEW017/// BKN028/// 12/06 Q1010
Conditions at: EKBI (BILLUND AIRPORT , DK) observed 1450 UTC 24 May 2019
Temperature: 12.0°C (54°F)
Dewpoint: 6.0°C (43°F) [RH = 67%]
Pressure (altimeter): 29.82 inches Hg (1010.0 mb)
Winds: from the W (280 degrees) at 17 MPH (15 knots; 7.7 m/s)
Visibility: 6 or more miles (10+ km)
Ceiling: 2800 feet AGL
Clouds: few clouds at 1700 feet AGL
broken clouds at 2800 feet AGL
Weather: no significant weather observed at this time

Forecast for: AMD
Text: TAF AMD EKBI 241517Z 2415/2512 28012KT 9999 BKN020
Forecast period: 1500 UTC 24 May 2019 to 1200 UTC 25 May 2019
Forecast type: FROM: standard forecast or significant change
Winds: from the W (280 degrees) at 14 MPH (12 knots; 6.2 m/s)
Visibility: 6 or more miles 10+ km)
Ceiling: 2000 feet AGL
Clouds: broken clouds at 2000 feet AGL
Weather: no significant weather forecast for this period
Text: TEMPO 2415/2418 28015G25KT
Forecast period: 1500 to 1800 UTC 24 May 2019
Forecast type: TEMPORARY: The following changes expected for less than half the time period
Winds: from the W (280 degrees) at 17 MPH (15 knots; 7.7 m/s)
gusting to 29 MPH (25 knots; 12.9 m/s)
Visibility: missing
Ceiling: unknown
Clouds: missing
Weather: no significant weather forecast for this period
Text: TEMPO 2500/2508 BKN012
Forecast period: 0000 to 0800 UTC 25 May 2019
Forecast type: TEMPORARY: The following changes expected for less than half the time period
Visibility: missing
Ceiling: 1200 feet AGL
Clouds: broken clouds at 1200 feet AGL
Weather: no significant weather forecast for this period

 AIRPORT MAP

 RUNWAY INFORMATION
Runway 09 Runway length 10172 ft Runway width 148 ft
Runway elevation 215 ft Runway displaced threshold 492 ft Runway heading 87
Runway 27 Runway length 10172 ft Runway width 148 ft
Runway elevation 244 ft Runway displaced threshold 492 ft Runway heading 267

 AIRPORT FREQUENCIES
Type APP Name APP Frequency 127.575 MHZ
Type ATIS Name ATIS Frequency 118.775 MHZ
Type MISC Name CARGO HAND Frequency 122.075 MHZ
Type MISC Name HANDLING Frequency 130.85 MHZ
Type OPS Name ARPT OFFIC Frequency 131.5 MHZ
Type TWR Name TWR Frequency 119 MHZ

 AIRPORT NEAR NAVIGATION AIDS
Type NDB Name Billund Frequency 341 KHZ